Airfield :
LOGIN :

Register | Disclaimer

   EN    FR    IT 

 










Legend :    VFR   Marginal VFR   IFR   Intensive IFR   Very Intensive IFR
Visi :
Ceiling :
>= 8 km
>= 3000ft
5 to 8 km
1000 to 3000 ft
1500m to 5 km
500 to 1000 ft
800 to 1500m
200 to 500 ft
< 800m
< 200 ft
Symbols :   Thunderstorms  Fog  Heavy snow  Heavy precipitations  Wind > 20 kt
SIGMETs :     Misc.  Thunderstorms  Icing  Turbulence  Mountain Waves  Volcanic Ashes







- Airport Elevation : 138 ft
- IATA code : BIO


LEBB - Bilbao

CURRENT METAR :
  • 262230Z 10003KT 070V150 9999 FEW030 SCT040 07/05 Q1029 NOSIG

EXPIRED METARs :
  • 262200Z 14003KT 100V160 9999 FEW030 SCT040 07/04 Q1029 NOSIG
  • 262130Z VRB01KT 9999 SCT030 SCT040 09/05 Q1029 NOSIG
  • 262100Z VRB01KT 9999 SCT030 SCT040 09/05 Q1028 NOSIG
  • 262030Z 32003KT 300V360 9999 SCT030 SCT040 09/05 Q1028 NOSIG
  • 262000Z 28003KT 9999 SCT040 08/04 Q1028 NOSIG

TAF TAF LEBB
Valid from the 26 at 18:00 until the 27 at 18:00 UTC


261700Z 2618/2718 08009KT CAVOK TX14/2714Z TN04/2706Z
No reported NOTAMs for that airfield.
2 SIGMETs reported for the Madrid FIR (LECM) :
 
Severe turbulence
LECM SIGMET 9 VALID 262200/270200 LEVA
LECM MADRID FIR SEV TURB FCST WI N3822 W00253 - N3733 W00332 - N3646 W00357 - N3655 W00153 - N3824 W00204 - N3822 W00253 SFC/FL120 STNR NC=
Severe turbulence
LECM SIGMET 10 VALID 262200/270200 LEVA
LECM MADRID FIR SEV TURB FCST S OF LINE N3700 W00721 - N3648 W00203 SFC/FL050 STNR NC=



MET'MAP, your aeronautical weather chart ! - Copyright ORBIFLY December 2007 - Disclaimer

ORBIFLY MET'MAP TEAM :

Programming & Development : Alexandra Zaïnal
Concept & Development : Baudouin d'Aumeries
Co-Development & Prog : Marc-Olivier Méhu
Technical & hardware support : Manuel Goepfert

Contact : metmap@orbifly.com




SOURCES & CREDITS :

   NOAA